航空気象通報

ウインドサーファーのための航空気象通報による風予報です。

3/31-4/2の航空気象通報

2015年03月31日 23時49分53秒 | TAF

羽田空港
TAF RJTT 311109Z 3112/0118 21012KT 9999 FEW020
TEMPO 3112/3113 20020G30KT
TEMPO 0100/0106 20020G30KT
BECMG 0106/0109 03020KT
TEMPO 0109/0112 4000 SHRA BR FEW005 BKN008
日本時間31日21時-1日15時:210度から12ノットの風
但し、31日21-22時の間:ときどき200度から20ノット、突風30ノット
但し、1日09-15時の間:ときどき200度から20ノット、突風30ノット
09-12時:風が変化
12時-2日03時:030度から20ノットの風

但し、1日18-21時の間:ときどき

静岡空港
TAF RJNS 311105Z 3112/0118 26010KT 9999 FEW010 BKN020
TEMPO 3118/3121 4000 -SHRA BR FEW005 BKN008
TEMPO 0103/0106 4000 SHRA BR FEW005 BKN008
BECMG 0112/0115 04006KT
日本時間31日21時-1日21時:260度から10ノットの風
21-24時:風が変化
2日00-03時:040度から6ノットの風

但し、1日03-06時の間:ときどき
但し、1日12-15時の間:ときどき

福岡空港
TAF RJFF 311109Z 3112/0118 16010KT 8000 -SHRA FEW010 SCT015 BKN025
TEMPO 3114/3121 4000 -SHRA BR
BECMG 3120/3122 02005KT
TEMPO 3121/0103 2000 -SHRA BR FEW005 BKN008 BKN020
日本時間31日21時-1日05時:160度から10ノットの風
05-07時:風が変化
07時-2日03時:020度から5ノットの風

那覇空港
TAF ROAH 311105Z 3112/0118 18008KT 9999 FEW015 SCT025
日本時間31日21時-2日03時:180度から8ノットの風

石垣空港
TAF ROIG 311107Z 3112/0118 20008KT 9999 FEW008 SCT020
日本時間31日21時-2日03時:200度から8ノットの風

マウイのカフルイ空港
PHOG 311136Z 3112/0112 14006KT P6SM VCSH SCT025 BKN070
FM312000 04010G16KT P6SM FEW030 SCT070
FM010500 06008KT P6SM FEW025 SCT060 AMD LTD TO WX VIS AND WIND TIL 311600
ハワイ時間31日02-10時:140度から6ノットの風

10-19時:040度から10ノット、突風16ノット
19時-2日02時:060度から8ノットの風

サイパン空港
TAF PGSN 311120Z 3112/0112 08012G20KT P6SM VCSH SCT018 SCT050 SCT120
FM010100 08015G25KT P6SM VCSH SCT020 SCT050
マリアナ時間31日22時-1日11時:080度から12ノット、突風20ノット
11-22時:080度から15ノット、突風25ノット

コメント
この記事をはてなブックマークに追加

3/30-4/1の航空気象通報

2015年03月30日 23時55分37秒 | TAF

羽田空港
TAF RJTT 301105Z 3012/3118 20008KT 9999 FEW020
TEMPO 3018/3022 4000 BR
BECMG 3100/3103 18018KT
BECMG 3103/3106 20020G30KT
BECMG 3112/3115 21010KT
日本時間30日21時-31日09時:200度から8ノットの風
09-12時:風が変化
12時:180度から18ノットの風
12-15時:風が変化
15-21時:200度から20ノット、突風30ノット
21時-1日03時:180度から14ノットの風

静岡空港
TAF RJNS 301106Z 3012/3118 30004KT 8000 FEW008 SCT012
TEMPO 3016/3022 4000 BR
BECMG 3100/3103 22012KT
BECMG 3109/3112 28008KT
日本時間30日21時-31日09時:300度から4ノットの風
09-12時:風が変化
12-18時:220度から12ノットの風
18-21時:風が変化
21時-1日03時:280度から8ノットの風

福岡空港
TAF RJFF 301105Z 3012/3118 15008KT CAVOK
日本時間30日21時-1日03時:150度から8ノットの風

那覇空港
TAF ROAH 301106Z 3012/3118 14005KT 9999 FEW020
日本時間30日21時-1日03時:140度から5ノットの風

石垣空港
TAF ROIG 301108Z 3012/3118 17008KT 9999 FEW010 BKN020
日本時間30日21時-1日03時:170度から8ノットの風

マウイのカフルイ空港
PHOG 301401Z 3014/3112 05010KT P6SM VCSH SCT050
FM301900 05012G22KT P6SM SCT050
FM310900 05010KT P6SM VCSH SCT050 AMD LTD TO WX VIS AND WIND TIL 301600
ハワイ時間30日02-09時:050度から10ノットの風
09-23時:050度から12ノット、突風22ノット
23時-31日02時:050度から10ノットの風

サイパン空港
TAF PGSN 301126Z 3012/3112 07015G25KT P6SM VCSH SCT018 SCT030 BKN120
FM310100 08018G28KT P6SM VCSH SCT020 SCT035 BKN120
マリアナ時間30日22時-31日11時:070度から15ノット、突風25ノット
11-22時:080度から18ノット、突風28ノット

コメント
この記事をはてなブックマークに追加

3/29-3/31の航空気象通報

2015年03月29日 23時39分21秒 | TAF

羽田空港
TAF RJTT 291109Z 2912/3018 25010KT 9999 FEW020 SCT060
BECMG 2914/2916 35010KT
BECMG 3000/3003 10008KT
BECMG 3003/3006 18014KT
日本時間29日21-23時:250度から10ノットの風
23時-30日01時:風が変化
01-09時:350度から10ノットの風
09-12時:風が変化
12時:100度から8ノットの風
12-15時:風が変化
15時-31日03時:180度から14ノットの風

静岡空港
TAF RJNS 291105Z 2912/3018 27012KT 9999 FEW020 SCT050
BECMG 2916/2918 33006KT
BECMG 3000/3003 16008KT
BECMG 3009/3012 30005KT
日本時間29日21時-30日01時:270度から12ノットの風
01-03時:風が変化
03-09時:330度から6ノットの風
09-12時:風が変化
12-18時:160度から8ノットの風
18-21時:風が変化
21時-31日03時:300度から5ノットの風

福岡空港
TAF RJFF 291110Z 2912/3018 33005KT CAVOK
BECMG 2912/2914 16004KT
BECMG 3000/3003 33006KT
BECMG 3009/3012 16004KT
日本時間29日21時:330度から5ノットの風
21-23時:風が変化
23時-30日09時:160度から4ノットの風
09-12時:風が変化
12-18時:330度から6ノットの風
18-21時:風が変化
21時-31日03時:160度から4ノットの風

那覇空港
TAF ROAH 291105Z 2912/3018 04007KT 9999 FEW025
BECMG 3000/3003 12005KT
日本時間29日21時-30日09時:040度から7ノットの風
09-12時:風が変化
12時-31日03時:120度から5ノットの風

石垣空港
TAF ROIG 291108Z 2912/3018 08006KT 9999 FEW030
BECMG 3003/3006 14007KT
日本時間29日21時-30日12時:080度から6ノットの風
12-15時:風が変化
15時-31日03時:140度から7ノットの風

マウイのカフルイ空港
PHOG 291135Z 2912/3012 14005KT P6SM FEW020 SCT050
FM292000 05014G20KT P6SM SCT025 SCT050
FM300500 05011KT P6SM FEW025 SCT050
FM301000 07005KT P6SM FEW025 SCT050 AMD LTD TO WX VIS AND WIND TIL 291600
ハワイ時間29日03-10時:140度から5ノットの風
10-19時:050度から14ノット、突風20ノット
19-24時:050度から11ノットの風
30日00-02時:070度から5ノットの風

サイパン空港
TAF PGSN 291133Z 2912/3012 06016KT P6SM VCSH SCT018 SCT050
FM300100 07015G25KT P6SM VCSH SCT022 SCT050 SCT120
マリアナ時間29日22時-30日11時:060度から16ノットの風
11-22時:070度から15ノット、突風25ノット

コメント
この記事をはてなブックマークに追加

3/28-3/30の航空気象通報

2015年03月28日 22時23分13秒 | TAF

羽田空港
TAF RJTT 281105Z 2812/2918 22010KT 9999 SCT015
BECMG 2900/2903 20020KT
TEMPO 2903/2909 20022G32KT
TEMPO 2909/2912 3000 SHRA BR FEW005 BKN008
BECMG 2909/2912 36006KT
日本時間28日21時-29日09時:220度から10ノットの風
09-12時:風が変化
12-18時:200度から20ノットの風
但し、12-18時の間:ときどき200度から22ノット、突風32ノット
18-21時:風が変化
21時-30日03時:360度から6ノットの風

静岡空港
TAF RJNS 281105Z 2812/2918 30008KT 9999 FEW030
BECMG 2900/2903 24014KT
TEMPO 2906/2909 4000 SHRA BR FEW005 BKN008
BECMG 2912/2915 30008KT
日本時間28日21時-29日09時:300度から8ノットの風
09-12時:風が変化
12-21時:240度から14ノットの風
21-24時:風が変化
30日00-03時:300度から8ノットの風

但し、29日15-18時の間:ときどき

福岡空港
TAF RJFF 281113Z 2812/2918 15006KT 9999 FEW030
BECMG 2820/2822 32011KT
TEMPO 2821/2823 3000 SHRA BR
BECMG 2909/2912 14003KT
日本時間28日21時-29日05時:150度から6ノットの風
05-07時:風が変化
07-18時:320度から11ノットの風
18-21時:風が変化
21時-30日03時:140度から3ノットの風

但し、29日06-08時の間:ときどき

那覇空港
TAF ROAH 281105Z 2812/2918 31014KT 9999 FEW020 SCT040
BECMG 2909/2912 02005KT
日本時間28日21時-29日18時:310度から14ノットの風
18-21時:風が変化
21時-30日03時:020度から5ノットの風

石垣空港
TAF ROIG 281107Z 2812/2918 33004KT 9999 FEW025 SCT045
日本時間28日21時-30日03時:330度から4ノットの風

マウイのカフルイ空港
PHOG 281135Z 2812/2912 12006KT P6SM SKC
FM282000 06014G22KT P6SM SCT050
FM290500 05009KT P6SM SKC AMD LTD TO WX VIS AND WIND TIL 281600
ハワイ時間28日03-10時:120度から6ノットの風
10-19時:060度から14ノット、突風22ノット
19時-29日02時:050度から9ノットの風

サイパン空港
TAF PGSN 281144Z 2812/2912 07014G24KT P6SM VCSH FEW018 SCT050 BKN120
TEMPO 2812/2816 -SHRA SCT016 BKN030
マリアナ時間28日22時-29日22時:070度から14ノット、突風24ノット

但し、28日22時-29日02時の間:ときどき

コメント
この記事をはてなブックマークに追加

3/27-3/29の航空気象通報

2015年03月27日 21時55分38秒 | TAF
羽田空港
TAF RJTT 271107Z 2712/2818 21012KT 9999 FEW030
BECMG 2715/2717 34005KT
BECMG 2800/2803 12008KT
BECMG 2803/2806 22016KT
TEMPO 2806/2815 22018G28KT
日本時間27日21-24時:210度から12ノットの風
28日00-02時:風が変化
02-09時:340度から5ノットの風
09-12時:風が変化
12時:120度から8ノットの風
12-15時:風が変化
15時-29日03時:220度から16ノットの風
但し、28日15-24時の間:ときどき220度から18ノット、突風28ノット


静岡空港
TAF RJNS 271105Z 2712/2818 28008KT 9999 FEW030
TEMPO 2803/2809 24016G26KT
日本時間27日21時-29日03時:280度から8ノットの風
但し、28日12-18時の間:ときどき240度から16ノット、突風26ノット


福岡空港
TAF RJFF 271109Z 2712/2818 14005KT 9999 FEW030
BECMG 2803/2806 33007KT
BECMG 2812/2815 15004KT
日本時間27日21時-28日12時:140度から5ノットの風
12-15時:風が変化
15-21時:330度から7ノットの風
21-24時:風が変化
29日00-03時:150度から4ノットの風


那覇空港
TAF ROAH 271107Z 2712/2818 16014KT 8000 FEW010 BKN020
TEMPO 2712/2715 16020G30KT 4000 -SHRA BR
TEMPO 2715/2717 4000 SHRA
BECMG 2715/2717 30010KT
日本時間27日21-24時:160度から14ノットの風
但し、27日21-24時の間:ときどき160度から20ノット、突風30ノット
28日00-02時:風が変化
02時-29日03時: 300度から10ノットの風

但し、27日21-24時の間:ときどき

石垣空港
TAF ROIG 271109Z 2712/2818 36010KT 9999 FEW010 BKN020
日本時間27日21時-29日03時:360度から10ノットの風


マウイのカフルイ空港
PHOG 271138Z 2712/2812 05014G22KT P6SM SKC
FM272000 06017G25KT P6SM SCT050
FM280800 06011G17KT P6SM SKC AMD LTD TO WX VIS AND WIND TIL 271600
ハワイ時間27日02-10時:050度から14ノット、突風22ノット
10-22時:060度から17ノット、突風25ノット
22時-28日02時:060度から11ノット、突風17ノット


サイパン空港
TAF PGSN 271139Z 2712/2812 05012G22KT P6SM VCSH SCT016 BKN050 BKN120
TEMPO 2712/2716 07018G28KT -SHRA SCT014 BKN030
FM280100 06016G26KT P6SM VCSH FEW020 SCT050 SCT120
マリアナ時間27日22時-28日11時:050度から12ノット、突風22ノット
但し、27日22時-28日02時の間:ときどき070度から18ノット、突風28ノット
11時-28日02時:060度から16ノット、突風26ノット
11時-28日02時:060度から16ノット、突風26ノット

コメント
この記事をはてなブックマークに追加